Terminal Aerodrome Forecast
Issued by NWS Austin/San Antonio, TX

Home | Current Version | Previous Version | Text Only | Print | Product List | Glossary On
Versions: 1 2 3 4 5 6 7 8 9 10 11 12 13 14 15 16 17 18 19
000
FTUS44 KEWX 261727
TAFSAT
TAF
KSAT 261727Z 2618/2724 17010KT P6SM OVC015
     FM261900 17012KT P6SM SCT050
     FM270500 16012KT P6SM OVC015
     FM271000 16012KT P6SM OVC007
     FM271700 16012KT P6SM BKN015
     FM272000 16015KT P6SM BKN050=

USA.gov is the U.S. government's official web portal to all federal, state and local government web resources and services.